Time,TemperatureF,DewpointF,PressureIn,WindDirection,WindDirectionDegrees,WindSpeedMPH,WindSpeedGustMPH,Humidity,HourlyPrecipIn,Conditions,Clouds,dailyrainin,SoftwareType,DateUTC
2013-08-26 00:01:00,76.3,67.0,30.03,SW,225,13.4,13.4,73,0.00,,,0.00,WUHU21623XXSP,2013-08-26 05:01:00,
2013-08-26 00:06:00,76.1,66.8,30.03,SSW,202,11.0,13.4,73,0.00,,,0.00,WUHU21623XXSP,2013-08-26 05:06:00,
2013-08-26 00:11:00,75.9,66.6,30.03,SSW,202,14.1,14.1,73,0.00,,,0.00,WUHU21623XXSP,2013-08-26 05:11:00,
2013-08-26 00:16:00,75.9,66.6,30.03,SSW,202,10.1,14.1,73,0.00,,,0.00,WUHU21623XXSP,2013-08-26 05:16:00,
2013-08-26 00:21:00,75.9,66.6,30.03,SW,225,8.3,11.0,73,0.00,,,0.00,WUHU21623XXSP,2013-08-26 05:21:00,
2013-08-26 00:26:00,75.9,66.6,30.02,SSW,202,4.7,11.0,73,0.00,,,0.00,WUHU21623XXSP,2013-08-26 05:26:00,
2013-08-26 00:31:00,75.7,66.8,30.01,SSW,202,9.2,12.5,74,0.00,,,0.00,WUHU21623XXSP,2013-08-26 05:31:00,
2013-08-26 00:36:00,75.7,66.8,30.01,South,180,6.9,13.9,74,0.00,,,0.00,WUHU21623XXSP,2013-08-26 05:36:00,
2013-08-26 00:41:00,75.7,66.8,30.01,South,180,4.7,16.3,74,0.00,,,0.00,WUHU21623XXSP,2013-08-26 05:41:00,
2013-08-26 00:46:00,75.7,67.2,30.01,SSW,202,11.9,16.3,75,0.00,,,0.00,WUHU21623XXSP,2013-08-26 05:46:00,
2013-08-26 00:51:00,75.7,67.2,30.01,SSW,202,6.7,13.9,75,0.00,,,0.00,WUHU21623XXSP,2013-08-26 05:51:00,
2013-08-26 00:56:00,75.6,67.1,30.01,SSW,202,11.2,13.9,75,0.00,,,0.00,WUHU21623XXSP,2013-08-26 05:56:00,
2013-08-26 01:01:00,75.7,67.2,30.01,SW,225,11.9,12.3,75,0.00,,,0.00,WUHU21623XXSP,2013-08-26 06:01:00,
2013-08-26 01:06:00,75.6,67.1,30.01,SW,225,6.0,13.4,75,0.00,,,0.00,WUHU21623XXSP,2013-08-26 06:06:00,
2013-08-26 01:11:00,75.6,67.1,30.01,South,180,10.5,14.3,75,0.00,,,0.00,WUHU21623XXSP,2013-08-26 06:11:00,
2013-08-26 01:16:00,75.6,67.1,30.01,SW,225,12.3,15.0,75,0.00,,,0.00,WUHU21623XXSP,2013-08-26 06:16:00,
2013-08-26 01:21:00,75.6,67.1,30.02,SSW,202,8.5,15.7,75,0.00,,,0.00,WUHU21623XXSP,2013-08-26 06:21:00,
2013-08-26 01:27:00,75.6,67.1,30.02,SSW,202,10.5,20.4,75,0.00,,,0.00,WUHU21623XXSP,2013-08-26 06:27:00,
2013-08-26 01:32:00,75.6,67.1,30.02,SSW,202,7.8,20.4,75,0.00,,,0.00,WUHU21623XXSP,2013-08-26 06:32:00,
2013-08-26 01:37:00,75.4,66.9,30.03,SSW,202,6.0,13.4,75,0.00,,,0.00,WUHU21623XXSP,2013-08-26 06:37:00,
2013-08-26 01:42:00,75.4,67.3,30.03,SSW,202,3.4,11.9,76,0.00,,,0.00,WUHU21623XXSP,2013-08-26 06:42:00,
2013-08-26 01:47:00,75.0,66.6,30.03,SSW,202,4.0,11.2,75,0.00,,,0.00,WUHU21623XXSP,2013-08-26 06:47:00,
2013-08-26 01:52:00,75.0,66.6,30.02,SSW,202,6.3,11.2,75,0.00,,,0.00,WUHU21623XXSP,2013-08-26 06:52:00,
2013-08-26 01:57:00,75.0,66.6,30.02,SW,225,5.1,12.5,75,0.00,,,0.00,WUHU21623XXSP,2013-08-26 06:57:00,
2013-08-26 02:01:00,75.0,67.0,30.03,SW,225,5.8,12.5,76,0.00,,,0.00,WUHU21623XXSP,2013-08-26 07:01:00,
2013-08-26 02:06:00,74.8,66.8,30.03,SSE,157,4.0,10.1,76,0.00,,,0.00,WUHU21623XXSP,2013-08-26 07:06:00,
2013-08-26 02:11:00,74.8,66.8,30.03,South,180,10.5,10.5,76,0.00,,,0.00,WUHU21623XXSP,2013-08-26 07:11:00,
2013-08-26 02:16:00,74.8,66.8,30.02,SSE,157,13.4,13.4,76,0.00,,,0.00,WUHU21623XXSP,2013-08-26 07:16:00,
2013-08-26 02:21:00,74.8,66.8,30.02,SSW,202,8.3,13.4,76,0.00,,,0.00,WUHU21623XXSP,2013-08-26 07:21:00,
2013-08-26 02:26:00,74.8,66.8,30.02,SW,225,5.8,13.9,76,0.00,,,0.00,WUHU21623XXSP,2013-08-26 07:26:00,
2013-08-26 02:31:00,74.5,66.4,30.02,SW,225,9.4,14.1,76,0.00,,,0.00,WUHU21623XXSP,2013-08-26 07:31:00,
2013-08-26 02:36:00,74.5,66.8,30.01,SSW,202,8.3,14.1,77,0.00,,,0.00,WUHU21623XXSP,2013-08-26 07:36:00,
2013-08-26 02:41:00,74.5,66.8,30.01,SW,225,8.3,11.9,77,0.00,,,0.00,WUHU21623XXSP,2013-08-26 07:41:00,
2013-08-26 02:46:00,74.3,66.7,30.01,SW,225,13.2,13.4,77,0.00,,,0.00,WUHU21623XXSP,2013-08-26 07:46:00,
2013-08-26 02:51:00,74.3,66.7,30.01,SW,225,5.4,13.4,77,0.00,,,0.00,WUHU21623XXSP,2013-08-26 07:51:00,
2013-08-26 02:56:00,74.1,66.9,30.00,South,180,8.1,13.2,78,0.00,,,0.00,WUHU21623XXSP,2013-08-26 07:56:00,
2013-08-26 03:01:00,74.1,66.9,30.00,SSW,202,6.7,13.2,78,0.00,,,0.00,WUHU21623XXSP,2013-08-26 08:01:00,
2013-08-26 03:06:00,73.9,66.7,30.00,SSW,202,4.9,12.3,78,0.00,,,0.00,WUHU21623XXSP,2013-08-26 08:06:00,
2013-08-26 03:11:00,73.9,66.7,30.00,SSW,202,9.8,12.3,78,0.00,,,0.00,WUHU21623XXSP,2013-08-26 08:11:00,
2013-08-26 03:16:00,73.9,66.7,30.00,SSW,202,12.8,16.3,78,0.00,,,0.00,WUHU21623XXSP,2013-08-26 08:16:00,
2013-08-26 03:21:00,73.9,66.7,30.00,South,180,9.2,16.3,78,0.00,,,0.00,WUHU21623XXSP,2013-08-26 08:21:00,
2013-08-26 03:26:00,73.8,66.5,30.00,SSW,202,10.1,11.9,78,0.00,,,0.00,WUHU21623XXSP,2013-08-26 08:26:00,
2013-08-26 03:31:00,73.8,66.5,30.01,South,180,8.5,11.9,78,0.00,,,0.00,WUHU21623XXSP,2013-08-26 08:31:00,
2013-08-26 03:36:00,73.9,66.7,30.01,SSW,202,4.7,11.9,78,0.00,,,0.00,WUHU21623XXSP,2013-08-26 08:36:00,
2013-08-26 03:41:00,73.8,66.1,30.01,SSW,202,4.7,11.6,77,0.00,,,0.00,WUHU21623XXSP,2013-08-26 08:41:00,
2013-08-26 03:46:00,73.8,66.1,30.01,South,180,5.8,11.0,77,0.00,,,0.00,WUHU21623XXSP,2013-08-26 08:46:00,
2013-08-26 03:51:00,73.6,65.9,30.01,SW,225,5.4,11.9,77,0.00,,,0.00,WUHU21623XXSP,2013-08-26 08:51:00,
2013-08-26 03:56:00,73.8,66.1,30.01,SSW,202,7.4,11.9,77,0.00,,,0.00,WUHU21623XXSP,2013-08-26 08:56:00,
2013-08-26 04:01:00,73.6,65.9,30.01,SSW,202,8.1,11.9,77,0.00,,,0.00,WUHU21623XXSP,2013-08-26 09:01:00,
2013-08-26 04:06:00,73.6,65.9,30.01,SSW,202,7.6,11.9,77,0.00,,,0.00,WUHU21623XXSP,2013-08-26 09:06:00,
2013-08-26 04:11:00,73.6,66.3,30.01,South,180,4.7,13.4,78,0.00,,,0.00,WUHU21623XXSP,2013-08-26 09:11:00,
2013-08-26 04:16:00,73.6,65.9,30.01,SSW,202,9.8,13.4,77,0.00,,,0.00,WUHU21623XXSP,2013-08-26 09:16:00,
2013-08-26 04:21:00,73.4,65.8,30.01,SSW,202,8.3,11.2,77,0.00,,,0.00,WUHU21623XXSP,2013-08-26 09:21:00,
2013-08-26 04:26:00,73.2,66.0,30.01,WSW,247,9.8,10.5,78,0.00,,,0.00,WUHU21623XXSP,2013-08-26 09:26:00,
2013-08-26 04:31:00,73.2,66.0,30.01,SW,225,11.4,11.4,78,0.00,,,0.00,WUHU21623XXSP,2013-08-26 09:31:00,
2013-08-26 04:36:00,73.2,66.0,30.01,SSW,202,3.6,11.4,78,0.00,,,0.00,WUHU21623XXSP,2013-08-26 09:36:00,
2013-08-26 04:41:00,73.2,66.0,30.01,SW,225,9.2,10.5,78,0.00,,,0.00,WUHU21623XXSP,2013-08-26 09:41:00,
2013-08-26 04:46:00,73.2,66.0,30.01,SW,225,6.3,10.5,78,0.00,,,0.00,WUHU21623XXSP,2013-08-26 09:46:00,
2013-08-26 04:51:00,73.2,66.4,30.01,SSW,202,8.3,11.2,79,0.00,,,0.00,WUHU21623XXSP,2013-08-26 09:51:00,
2013-08-26 04:56:00,73.0,66.2,30.01,South,180,4.0,12.5,79,0.00,,,0.00,WUHU21623XXSP,2013-08-26 09:56:00,
2013-08-26 05:01:00,73.0,66.2,30.02,South,180,5.8,12.5,79,0.00,,,0.00,WUHU21623XXSP,2013-08-26 10:01:00,
2013-08-26 05:06:00,72.9,66.0,30.01,SW,225,4.9,9.2,79,0.00,,,0.00,WUHU21623XXSP,2013-08-26 10:06:00,
2013-08-26 05:11:00,72.9,66.0,30.01,WSW,247,11.9,11.9,79,0.00,,,0.00,WUHU21623XXSP,2013-08-26 10:11:00,
2013-08-26 05:16:00,72.9,66.0,30.01,SW,225,6.3,11.9,79,0.00,,,0.00,WUHU21623XXSP,2013-08-26 10:16:00,
2013-08-26 05:21:00,72.7,65.8,30.01,WSW,247,4.5,11.6,79,0.00,,,0.00,WUHU21623XXSP,2013-08-26 10:21:00,
2013-08-26 05:26:00,72.7,65.8,30.01,SW,225,3.1,11.9,79,0.00,,,0.00,WUHU21623XXSP,2013-08-26 10:26:00,
2013-08-26 05:31:00,72.5,65.6,30.01,SW,225,6.0,11.9,79,0.00,,,0.00,WUHU21623XXSP,2013-08-26 10:31:00,
2013-08-26 05:36:00,72.5,65.6,30.01,WSW,247,3.6,10.5,79,0.00,,,0.00,WUHU21623XXSP,2013-08-26 10:36:00,
2013-08-26 05:41:00,72.5,65.6,30.01,SSW,202,6.0,9.8,79,0.00,,,0.00,WUHU21623XXSP,2013-08-26 10:41:00,
2013-08-26 05:46:00,72.3,65.8,30.01,South,180,4.0,9.2,80,0.00,,,0.00,WUHU21623XXSP,2013-08-26 10:46:00,
2013-08-26 05:51:00,72.3,65.8,30.01,SW,225,3.6,11.6,80,0.00,,,0.00,WUHU21623XXSP,2013-08-26 10:51:00,
2013-08-26 05:56:00,72.3,65.8,30.02,SSW,202,4.0,11.6,80,0.00,,,0.00,WUHU21623XXSP,2013-08-26 10:56:00,
2013-08-26 06:01:00,72.3,65.8,30.02,SW,225,4.5,8.5,80,0.00,,,0.00,WUHU21623XXSP,2013-08-26 11:01:00,
2013-08-26 06:06:00,72.3,65.8,30.03,SSW,202,6.0,8.5,80,0.00,,,0.00,WUHU21623XXSP,2013-08-26 11:06:00,
2013-08-26 06:11:00,72.3,65.8,30.03,SSW,202,4.7,8.5,80,0.00,,,0.00,WUHU21623XXSP,2013-08-26 11:11:00,
2013-08-26 06:16:00,72.3,65.8,30.03,SW,225,2.5,8.3,80,0.00,,,0.00,WUHU21623XXSP,2013-08-26 11:16:00,
2013-08-26 06:21:00,72.1,65.7,30.03,SW,225,4.5,8.3,80,0.00,,,0.00,WUHU21623XXSP,2013-08-26 11:21:00,
2013-08-26 06:26:00,72.3,65.8,30.04,SSW,202,6.0,7.2,80,0.00,,,0.00,WUHU21623XXSP,2013-08-26 11:26:00,
2013-08-26 06:31:00,72.3,65.8,30.04,SSW,202,3.6,9.6,80,0.00,,,0.00,WUHU21623XXSP,2013-08-26 11:31:00,
2013-08-26 06:36:00,72.7,66.2,30.04,WSW,247,6.7,9.6,80,0.00,,,0.00,WUHU21623XXSP,2013-08-26 11:36:00,
2013-08-26 06:41:00,72.7,65.8,30.04,SSW,202,6.3,8.5,79,0.00,,,0.00,WUHU21623XXSP,2013-08-26 11:41:00,
2013-08-26 06:46:00,73.0,66.2,30.04,SSW,202,6.9,11.9,79,0.00,,,0.00,WUHU21623XXSP,2013-08-26 11:46:00,
2013-08-26 06:51:00,73.0,66.2,30.04,SSW,202,4.5,11.9,79,0.00,,,0.00,WUHU21623XXSP,2013-08-26 11:51:00,
2013-08-26 06:56:00,73.2,66.4,30.04,SSW,202,4.7,11.6,79,0.00,,,0.00,WUHU21623XXSP,2013-08-26 11:56:00,
2013-08-26 07:01:00,73.0,66.2,30.03,SSW,202,5.1,11.4,79,0.00,,,0.00,WUHU21623XXSP,2013-08-26 12:01:00,
2013-08-26 07:06:00,73.2,66.4,30.03,SSW,202,5.4,11.4,79,0.00,,,0.00,WUHU21623XXSP,2013-08-26 12:06:00,
2013-08-26 07:11:00,73.2,66.4,30.03,South,180,5.1,10.1,79,0.00,,,0.00,WUHU21623XXSP,2013-08-26 12:11:00,
2013-08-26 07:16:00,73.2,66.4,30.03,SW,225,6.5,11.0,79,0.00,,,0.00,WUHU21623XXSP,2013-08-26 12:16:00,
2013-08-26 07:21:00,73.2,66.4,30.04,SW,225,7.8,11.0,79,0.00,,,0.00,WUHU21623XXSP,2013-08-26 12:21:00,
2013-08-26 07:26:00,73.2,66.4,30.04,SSW,202,3.6,8.9,79,0.00,,,0.00,WUHU21623XXSP,2013-08-26 12:26:00,
2013-08-26 07:31:00,73.4,66.2,30.04,SW,225,5.1,8.5,78,0.00,,,0.00,WUHU21623XXSP,2013-08-26 12:31:00,
2013-08-26 07:36:00,73.6,66.3,30.04,SW,225,2.9,8.9,78,0.00,,,0.00,WUHU21623XXSP,2013-08-26 12:36:00,
2013-08-26 07:41:00,73.8,66.5,30.03,SSE,157,3.8,8.9,78,0.00,,,0.00,WUHU21623XXSP,2013-08-26 12:41:00,
2013-08-26 07:46:00,73.9,66.7,30.04,SW,225,4.5,8.1,78,0.00,,,0.00,WUHU21623XXSP,2013-08-26 12:46:00,
2013-08-26 07:51:00,73.9,66.7,30.04,SSE,157,3.1,8.5,78,0.00,,,0.00,WUHU21623XXSP,2013-08-26 12:51:00,
2013-08-26 07:56:00,74.1,66.9,30.04,WSW,247,6.0,9.4,78,0.00,,,0.00,WUHU21623XXSP,2013-08-26 12:56:00,
2013-08-26 08:01:00,74.1,66.9,30.03,SSW,202,10.1,10.1,78,0.00,,,0.00,WUHU21623XXSP,2013-08-26 13:01:00,
2013-08-26 08:06:00,74.1,66.9,30.03,SSW,202,3.6,10.1,78,0.00,,,0.00,WUHU21623XXSP,2013-08-26 13:06:00,
2013-08-26 08:11:00,74.3,66.7,30.03,SSE,157,4.7,12.3,77,0.00,,,0.00,WUHU21623XXSP,2013-08-26 13:11:00,
2013-08-26 08:16:00,74.3,66.7,30.04,SSW,202,6.0,12.3,77,0.00,,,0.00,WUHU21623XXSP,2013-08-26 13:16:00,
2013-08-26 08:21:00,74.7,67.0,30.04,WSW,247,9.2,12.5,77,0.00,,,0.00,WUHU21623XXSP,2013-08-26 13:21:00,
2013-08-26 08:26:00,74.7,67.0,30.04,WSW,247,2.2,12.5,77,0.00,,,0.00,WUHU21623XXSP,2013-08-26 13:26:00,
2013-08-26 08:31:00,74.8,67.2,30.04,South,180,5.8,11.6,77,0.00,,,0.00,WUHU21623XXSP,2013-08-26 13:31:00,
2013-08-26 08:36:00,74.5,66.8,30.06,NW,315,7.6,7.6,77,0.00,,,0.00,WUHU21623XXSP,2013-08-26 13:36:00,
2013-08-26 08:41:00,74.7,67.0,30.06,NNW,337,3.4,7.6,77,0.00,,,0.00,WUHU21623XXSP,2013-08-26 13:41:00,
2013-08-26 08:46:00,74.8,67.6,30.08,West,270,3.8,8.3,78,0.00,,,0.00,WUHU21623XXSP,2013-08-26 13:46:00,
2013-08-26 08:51:00,74.8,67.6,30.08,NE,45,0.0,8.3,78,0.00,,,0.00,WUHU21623XXSP,2013-08-26 13:51:00,
2013-08-26 08:56:00,74.5,67.2,30.08,WNW,292,4.7,6.7,78,0.00,,,0.00,WUHU21623XXSP,2013-08-26 13:56:00,
2013-08-26 09:01:00,74.5,67.6,30.07,NW,315,2.2,4.7,79,0.00,,,0.00,WUHU21623XXSP,2013-08-26 14:01:00,
2013-08-26 09:06:00,74.8,68.0,30.08,NNW,337,2.5,4.5,79,0.00,,,0.00,WUHU21623XXSP,2013-08-26 14:06:00,
2013-08-26 09:11:00,75.0,68.1,30.07,WSW,247,0.0,4.5,79,0.00,,,0.00,WUHU21623XXSP,2013-08-26 14:11:00,
2013-08-26 09:16:00,75.4,68.1,30.06,NNW,337,1.1,3.6,78,0.00,,,0.00,WUHU21623XXSP,2013-08-26 14:16:00,
2013-08-26 09:21:00,75.6,68.3,30.07,NNW,337,3.4,3.6,78,0.00,,,0.00,WUHU21623XXSP,2013-08-26 14:21:00,
2013-08-26 09:26:00,75.9,68.2,30.06,WSW,247,0.0,3.4,77,0.00,,,0.00,WUHU21623XXSP,2013-08-26 14:26:00,
2013-08-26 09:31:00,76.1,68.0,30.06,NW,315,1.3,2.9,76,0.00,,,0.00,WUHU21623XXSP,2013-08-26 14:31:00,
2013-08-26 09:36:00,76.3,68.5,30.07,NNW,337,1.1,3.4,77,0.00,,,0.00,WUHU21623XXSP,2013-08-26 14:36:00,
2013-08-26 09:41:00,76.8,68.6,30.06,SW,225,0.0,3.4,76,0.00,,,0.00,WUHU21623XXSP,2013-08-26 14:41:00,
2013-08-26 09:46:00,77.2,69.0,30.06,NNW,337,1.3,3.1,76,0.00,,,0.00,WUHU21623XXSP,2013-08-26 14:46:00,
2013-08-26 09:51:00,77.4,68.8,30.06,NW,315,0.9,3.1,75,0.00,,,0.00,WUHU21623XXSP,2013-08-26 14:51:00,
2013-08-26 09:56:00,77.5,68.6,30.06,NNW,337,1.6,2.5,74,0.00,,,0.00,WUHU21623XXSP,2013-08-26 14:56:00,
2013-08-26 10:01:00,78.1,69.1,30.06,WNW,292,0.0,2.7,74,0.00,,,0.00,WUHU21623XXSP,2013-08-26 15:01:00,
2013-08-26 10:06:00,78.6,69.6,30.05,West,270,0.0,2.7,74,0.00,,,0.00,WUHU21623XXSP,2013-08-26 15:06:00,
2013-08-26 10:11:00,79.2,69.7,30.05,WSW,247,0.0,2.7,73,0.00,,,0.00,WUHU21623XXSP,2013-08-26 15:11:00,
2013-08-26 10:16:00,79.2,69.7,30.05,SW,225,3.1,3.1,73,0.00,,,0.00,WUHU21623XXSP,2013-08-26 15:16:00,
2013-08-26 10:21:00,79.5,70.1,30.05,West,270,0.0,3.4,73,0.00,,,0.00,WUHU21623XXSP,2013-08-26 15:21:00,
2013-08-26 10:26:00,79.5,69.7,30.05,WNW,292,1.8,3.4,72,0.00,,,0.00,WUHU21623XXSP,2013-08-26 15:26:00,
2013-08-26 10:31:00,79.7,69.9,30.06,South,180,0.0,2.7,72,0.00,,,0.00,WUHU21623XXSP,2013-08-26 15:31:00,
2013-08-26 10:36:00,79.7,69.9,30.06,WNW,292,0.0,2.9,72,0.00,,,0.00,WUHU21623XXSP,2013-08-26 15:36:00,
2013-08-26 10:41:00,79.7,69.9,30.06,SSW,202,1.6,2.9,72,0.00,,,0.00,WUHU21623XXSP,2013-08-26 15:41:00,
2013-08-26 10:46:00,79.5,69.7,30.06,SW,225,2.2,5.4,72,0.00,,,0.00,WUHU21623XXSP,2013-08-26 15:46:00,
2013-08-26 10:51:00,79.5,69.7,30.06,SW,225,2.9,5.4,72,0.00,,,0.00,WUHU21623XXSP,2013-08-26 15:51:00,
2013-08-26 10:56:00,80.2,70.4,30.06,SW,225,4.9,5.6,72,0.00,,,0.00,WUHU21623XXSP,2013-08-26 15:56:00,
2013-08-26 11:01:00,80.4,69.8,30.06,North,0,0.0,5.6,70,0.00,,,0.00,WUHU21623XXSP,2013-08-26 16:01:00,
2013-08-26 11:06:00,81.1,70.5,30.06,North,0,0.0,4.9,70,0.00,,,0.00,WUHU21623XXSP,2013-08-26 16:06:00,
2013-08-26 11:11:00,81.3,70.2,30.06,NW,315,2.7,4.7,69,0.00,,,0.00,WUHU21623XXSP,2013-08-26 16:11:00,
2013-08-26 11:16:00,81.3,71.0,30.06,North,0,1.3,4.7,71,0.00,,,0.00,WUHU21623XXSP,2013-08-26 16:16:00,
2013-08-26 11:21:00,81.3,70.6,30.05,North,0,1.3,4.7,70,0.00,,,0.00,WUHU21623XXSP,2013-08-26 16:21:00,
2013-08-26 11:26:00,81.5,70.8,30.04,West,270,0.0,4.7,70,0.00,,,0.00,WUHU21623XXSP,2013-08-26 16:26:00,
2013-08-26 11:31:00,82.0,71.3,30.03,ESE,112,0.0,4.7,70,0.00,,,0.00,WUHU21623XXSP,2013-08-26 16:31:00,
2013-08-26 11:36:00,82.0,70.8,30.03,SE,135,1.1,2.7,69,0.00,,,0.00,WUHU21623XXSP,2013-08-26 16:36:00,
2013-08-26 11:41:00,81.7,70.5,30.02,South,180,0.0,4.0,69,0.00,,,0.00,WUHU21623XXSP,2013-08-26 16:41:00,
2013-08-26 11:46:00,81.7,70.5,30.02,SSE,157,5.4,7.6,69,0.00,,,0.00,WUHU21623XXSP,2013-08-26 16:46:00,
2013-08-26 11:51:00,82.2,70.5,30.02,SSW,202,4.5,7.6,68,0.00,,,0.00,WUHU21623XXSP,2013-08-26 16:51:00,
2013-08-26 11:56:00,82.9,71.2,30.01,SSE,157,3.1,6.9,68,0.00,,,0.00,WUHU21623XXSP,2013-08-26 16:56:00,
2013-08-26 12:01:00,82.9,70.3,30.01,SSW,202,3.4,8.1,66,0.00,,,0.00,WUHU21623XXSP,2013-08-26 17:01:00,
2013-08-26 12:06:00,84.0,71.0,30.00,SW,225,5.1,8.1,65,0.00,,,0.00,WUHU21623XXSP,2013-08-26 17:06:00,
2013-08-26 12:11:00,84.4,70.0,30.00,SE,135,5.4,10.7,62,0.00,,,0.00,WUHU21623XXSP,2013-08-26 17:11:00,
2013-08-26 12:16:00,85.1,70.6,30.00,South,180,3.8,10.7,62,0.00,,,0.00,WUHU21623XXSP,2013-08-26 17:16:00,
2013-08-26 12:21:00,85.3,70.8,29.99,SW,225,9.6,10.3,62,0.00,,,0.00,WUHU21623XXSP,2013-08-26 17:21:00,
2013-08-26 12:26:00,85.1,70.6,29.99,SW,225,11.4,14.5,62,0.00,,,0.00,WUHU21623XXSP,2013-08-26 17:26:00,
2013-08-26 12:31:00,84.9,70.0,29.99,SW,225,11.2,14.5,61,0.00,,,0.00,WUHU21623XXSP,2013-08-26 17:31:00,
2013-08-26 12:36:00,85.1,70.6,29.99,SSW,202,5.4,12.8,62,0.00,,,0.00,WUHU21623XXSP,2013-08-26 17:36:00,
2013-08-26 12:41:00,85.6,70.6,29.99,SW,225,9.8,11.9,61,0.00,,,0.00,WUHU21623XXSP,2013-08-26 17:41:00,
2013-08-26 12:46:00,85.8,69.8,29.98,South,180,6.9,13.2,59,0.00,,,0.00,WUHU21623XXSP,2013-08-26 17:46:00,
2013-08-26 12:51:00,85.6,70.2,29.98,SW,225,8.5,15.0,60,0.00,,,0.00,WUHU21623XXSP,2013-08-26 17:51:00,
2013-08-26 12:56:00,86.4,70.9,29.98,SSW,202,14.3,15.0,60,0.00,,,0.00,WUHU21623XXSP,2013-08-26 17:56:00,
2013-08-26 13:01:00,86.2,70.2,29.97,South,180,7.2,19.5,59,0.00,,,0.00,WUHU21623XXSP,2013-08-26 18:01:00,
2013-08-26 13:06:00,86.2,70.7,29.97,SW,225,8.1,19.5,60,0.00,,,0.00,WUHU21623XXSP,2013-08-26 18:06:00,
2013-08-26 13:11:00,86.5,69.5,29.96,SW,225,11.4,19.0,57,0.00,,,0.00,WUHU21623XXSP,2013-08-26 18:11:00,
2013-08-26 13:16:00,85.8,69.8,29.96,SW,225,10.5,16.8,58,0.00,,,0.00,WUHU21623XXSP,2013-08-26 18:16:00,
2013-08-26 13:21:00,85.1,69.2,29.96,SSW,202,11.9,17.9,59,0.00,,,0.00,WUHU21623XXSP,2013-08-26 18:21:00,
2013-08-26 13:26:00,85.3,69.3,29.96,WSW,247,7.4,17.9,59,0.00,,,0.00,WUHU21623XXSP,2013-08-26 18:26:00,
2013-08-26 13:31:00,86.2,70.2,29.96,SSW,202,4.9,13.4,59,0.00,,,0.00,WUHU21623XXSP,2013-08-26 18:31:00,
2013-08-26 13:36:00,86.2,69.6,29.96,SW,225,11.9,14.1,58,0.00,,,0.00,WUHU21623XXSP,2013-08-26 18:36:00,
2013-08-26 13:41:00,86.2,69.6,29.96,SSW,202,8.5,14.1,58,0.00,,,0.00,WUHU21623XXSP,2013-08-26 18:41:00,
2013-08-26 13:46:00,86.5,69.5,29.96,SW,225,8.9,14.1,57,0.00,,,0.00,WUHU21623XXSP,2013-08-26 18:46:00,
2013-08-26 13:51:00,87.1,69.5,29.96,WSW,247,3.8,13.4,56,0.00,,,0.00,WUHU21623XXSP,2013-08-26 18:51:00,
2013-08-26 13:56:00,87.4,69.8,29.95,SSW,202,13.9,13.9,56,0.00,,,0.00,WUHU21623XXSP,2013-08-26 18:56:00,
2013-08-26 14:01:00,87.1,70.5,29.95,WSW,247,6.5,13.9,58,0.00,,,0.00,WUHU21623XXSP,2013-08-26 19:01:00,
2013-08-26 14:06:00,87.6,70.0,29.95,SW,225,13.0,13.9,56,0.00,,,0.00,WUHU21623XXSP,2013-08-26 19:06:00,
2013-08-26 14:11:00,87.4,69.3,29.95,SW,225,12.8,13.0,55,0.00,,,0.00,WUHU21623XXSP,2013-08-26 19:11:00,
2013-08-26 14:16:00,88.5,71.3,29.95,SSE,157,3.8,12.8,57,0.00,,,0.00,WUHU21623XXSP,2013-08-26 19:16:00,
2013-08-26 14:21:00,88.5,69.7,29.94,West,270,8.5,11.4,54,0.00,,,0.00,WUHU21623XXSP,2013-08-26 19:21:00,
2013-08-26 14:26:00,88.7,70.4,29.94,SSW,202,7.6,11.4,55,0.00,,,0.00,WUHU21623XXSP,2013-08-26 19:26:00,
2013-08-26 14:31:00,88.7,69.9,29.94,SSW,202,4.0,10.5,54,0.00,,,0.00,WUHU21623XXSP,2013-08-26 19:31:00,
2013-08-26 14:36:00,88.9,71.1,29.94,SSW,202,8.3,11.0,56,0.00,,,0.00,WUHU21623XXSP,2013-08-26 19:36:00,
2013-08-26 14:41:00,88.7,70.4,29.94,WSW,247,9.8,20.1,55,0.00,,,0.00,WUHU21623XXSP,2013-08-26 19:41:00,
2013-08-26 14:46:00,88.7,71.0,29.94,SSW,202,10.7,20.1,56,0.00,,,0.00,WUHU21623XXSP,2013-08-26 19:46:00,
2013-08-26 14:51:00,88.5,71.9,29.94,SW,225,15.4,19.5,58,0.00,,,0.00,WUHU21623XXSP,2013-08-26 19:51:00,
2013-08-26 14:56:00,88.3,72.3,29.94,SSW,202,6.3,15.9,59,0.00,,,0.00,WUHU21623XXSP,2013-08-26 19:56:00,
2013-08-26 15:01:00,88.9,72.2,29.94,South,180,14.1,15.9,58,0.00,,,0.00,WUHU21623XXSP,2013-08-26 20:01:00,
2013-08-26 15:06:00,88.7,72.6,29.93,SSE,157,9.4,15.9,59,0.00,,,0.00,WUHU21623XXSP,2013-08-26 20:06:00,
2013-08-26 15:11:00,89.4,72.7,29.93,WSW,247,4.5,15.4,58,0.00,,,0.00,WUHU21623XXSP,2013-08-26 20:11:00,
2013-08-26 15:16:00,89.2,73.1,29.93,SW,225,12.3,15.7,59,0.00,,,0.00,WUHU21623XXSP,2013-08-26 20:16:00,
2013-08-26 15:21:00,89.2,72.5,29.93,SSE,157,7.6,17.2,58,0.00,,,0.00,WUHU21623XXSP,2013-08-26 20:21:00,
2013-08-26 15:26:00,89.4,72.7,29.93,SW,225,10.5,17.2,58,0.00,,,0.00,WUHU21623XXSP,2013-08-26 20:26:00,
2013-08-26 15:31:00,89.4,72.7,29.93,South,180,5.6,18.1,58,0.00,,,0.00,WUHU21623XXSP,2013-08-26 20:31:00,
2013-08-26 15:36:00,90.0,73.2,29.92,SW,225,4.0,18.1,58,0.00,,,0.00,WUHU21623XXSP,2013-08-26 20:36:00,
2013-08-26 15:41:00,90.0,73.2,29.92,SW,225,8.9,13.9,58,0.00,,,0.00,WUHU21623XXSP,2013-08-26 20:41:00,
2013-08-26 15:46:00,89.8,73.6,29.92,SSW,202,12.8,13.9,59,0.00,,,0.00,WUHU21623XXSP,2013-08-26 20:46:00,
2013-08-26 15:51:00,90.1,73.9,29.92,SSW,202,11.6,15.0,59,0.00,,,0.00,WUHU21623XXSP,2013-08-26 20:51:00,
2013-08-26 15:56:00,89.8,73.6,29.92,NNW,337,1.8,15.2,59,0.00,,,0.00,WUHU21623XXSP,2013-08-26 20:56:00,
2013-08-26 16:01:00,90.3,73.5,29.93,SSW,202,6.7,15.2,58,0.00,,,0.00,WUHU21623XXSP,2013-08-26 21:01:00,
2013-08-26 16:06:00,90.5,73.1,29.93,WSW,247,3.4,15.2,57,0.00,,,0.00,WUHU21623XXSP,2013-08-26 21:06:00,
2013-08-26 16:11:00,90.1,72.8,29.93,SSW,202,11.6,19.9,57,0.00,,,0.00,WUHU21623XXSP,2013-08-26 21:11:00,
2013-08-26 16:16:00,90.1,73.3,29.92,SW,225,12.3,19.9,58,0.00,,,0.00,WUHU21623XXSP,2013-08-26 21:16:00,
2013-08-26 16:21:00,90.0,73.2,29.92,SW,225,13.9,16.8,58,0.00,,,0.00,WUHU21623XXSP,2013-08-26 21:21:00,
2013-08-26 16:26:00,89.4,73.2,29.92,WSW,247,8.9,16.8,59,0.00,,,0.00,WUHU21623XXSP,2013-08-26 21:26:00,
2013-08-26 16:31:00,89.8,73.6,29.92,NW,315,3.1,15.2,59,0.00,,,0.00,WUHU21623XXSP,2013-08-26 21:31:00,
2013-08-26 16:36:00,90.0,73.7,29.92,West,270,6.7,17.9,59,0.00,,,0.00,WUHU21623XXSP,2013-08-26 21:36:00,
2013-08-26 16:41:00,89.8,74.1,29.92,South,180,3.6,17.9,60,0.00,,,0.00,WUHU21623XXSP,2013-08-26 21:41:00,
2013-08-26 16:46:00,90.0,74.3,29.93,SSE,157,8.1,17.7,60,0.00,,,0.00,WUHU21623XXSP,2013-08-26 21:46:00,
2013-08-26 16:51:00,90.3,74.6,29.92,SSE,157,6.3,17.7,60,0.00,,,0.00,WUHU21623XXSP,2013-08-26 21:51:00,
2013-08-26 16:56:00,89.8,74.1,29.92,SW,225,3.8,14.1,60,0.00,,,0.00,WUHU21623XXSP,2013-08-26 21:56:00,
2013-08-26 17:01:00,90.0,74.3,29.92,SSW,202,9.4,14.5,60,0.00,,,0.00,WUHU21623XXSP,2013-08-26 22:01:00,
2013-08-26 17:06:00,90.1,74.9,29.92,WNW,292,0.9,14.5,61,0.00,,,0.00,WUHU21623XXSP,2013-08-26 22:06:00,
2013-08-26 17:11:00,90.3,74.6,29.92,SW,225,8.3,10.3,60,0.00,,,0.00,WUHU21623XXSP,2013-08-26 22:11:00,
2013-08-26 17:16:00,90.7,75.4,29.92,SW,225,2.9,10.3,61,0.00,,,0.00,WUHU21623XXSP,2013-08-26 22:16:00,
2013-08-26 17:21:00,90.5,74.8,29.91,WSW,247,4.3,10.1,60,0.00,,,0.00,WUHU21623XXSP,2013-08-26 22:21:00,
2013-08-26 17:26:00,90.7,75.4,29.91,SW,225,9.8,10.1,61,0.00,,,0.00,WUHU21623XXSP,2013-08-26 22:26:00,
2013-08-26 17:31:00,90.3,75.5,29.91,SW,225,6.0,10.5,62,0.00,,,0.00,WUHU21623XXSP,2013-08-26 22:31:00,
2013-08-26 17:36:00,89.6,74.9,29.91,SW,225,9.2,15.9,62,0.00,,,0.00,WUHU21623XXSP,2013-08-26 22:36:00,
2013-08-26 17:41:00,89.4,75.2,29.91,SW,225,14.1,15.9,63,0.00,,,0.00,WUHU21623XXSP,2013-08-26 22:41:00,
2013-08-26 17:46:00,88.7,75.0,29.91,South,180,4.0,14.1,64,0.00,,,0.00,WUHU21623XXSP,2013-08-26 22:46:00,
2013-08-26 17:51:00,88.3,74.6,29.91,SW,225,5.8,14.1,64,0.00,,,0.00,WUHU21623XXSP,2013-08-26 22:51:00,
2013-08-26 17:56:00,88.2,74.9,29.91,SW,225,9.6,12.8,65,0.00,,,0.00,WUHU21623XXSP,2013-08-26 22:56:00,
2013-08-26 18:01:00,88.0,75.2,29.91,SW,225,3.1,9.6,66,0.00,,,0.00,WUHU21623XXSP,2013-08-26 23:01:00,
2013-08-26 18:06:00,88.0,75.2,29.91,WSW,247,5.4,9.6,66,0.00,,,0.00,WUHU21623XXSP,2013-08-26 23:06:00,
2013-08-26 18:11:00,87.6,74.8,29.91,SW,225,6.3,9.8,66,0.00,,,0.00,WUHU21623XXSP,2013-08-26 23:11:00,
2013-08-26 18:16:00,87.4,75.1,29.90,SW,225,6.0,9.8,67,0.00,,,0.00,WUHU21623XXSP,2013-08-26 23:16:00,
2013-08-26 18:21:00,87.1,75.3,29.91,SSW,202,4.7,8.5,68,0.00,,,0.00,WUHU21623XXSP,2013-08-26 23:21:00,
2013-08-26 18:26:00,86.7,75.4,29.91,SSW,202,5.8,9.8,69,0.00,,,0.00,WUHU21623XXSP,2013-08-26 23:26:00,
2013-08-26 18:31:00,86.5,75.2,29.90,SSW,202,4.9,9.8,69,0.00,,,0.00,WUHU21623XXSP,2013-08-26 23:31:00,
2013-08-26 18:36:00,86.5,75.7,29.91,SW,225,6.0,9.4,70,0.00,,,0.00,WUHU21623XXSP,2013-08-26 23:36:00,
2013-08-26 18:41:00,86.2,75.4,29.91,SSW,202,5.1,9.6,70,0.00,,,0.00,WUHU21623XXSP,2013-08-26 23:41:00,
2013-08-26 18:46:00,85.8,75.4,29.90,SW,225,3.6,9.6,71,0.00,,,0.00,WUHU21623XXSP,2013-08-26 23:46:00,
2013-08-26 18:51:00,85.8,75.4,29.91,South,180,3.6,5.6,71,0.00,,,0.00,WUHU21623XXSP,2013-08-26 23:51:00,
2013-08-26 18:56:00,85.6,75.2,29.90,South,180,4.9,8.1,71,0.00,,,0.00,WUHU21623XXSP,2013-08-26 23:56:00,
2013-08-26 19:01:00,85.6,75.6,29.90,SSE,157,6.5,9.6,72,0.00,,,0.00,WUHU21623XXSP,2013-08-27 00:01:00,
2013-08-26 19:06:00,85.5,75.1,29.90,SW,225,4.3,9.6,71,0.00,,,0.00,WUHU21623XXSP,2013-08-27 00:06:00,
2013-08-26 19:11:00,85.6,75.2,29.90,SW,225,7.8,8.5,71,0.00,,,0.00,WUHU21623XXSP,2013-08-27 00:11:00,
2013-08-26 19:16:00,85.3,74.9,29.90,SSW,202,3.8,7.8,71,0.00,,,0.00,WUHU21623XXSP,2013-08-27 00:16:00,
2013-08-26 19:21:00,85.3,75.3,29.90,SW,225,4.7,7.8,72,0.00,,,0.00,WUHU21623XXSP,2013-08-27 00:21:00,
2013-08-26 19:26:00,85.3,75.3,29.90,SSW,202,4.9,7.4,72,0.00,,,0.00,WUHU21623XXSP,2013-08-27 00:26:00,
2013-08-26 19:31:00,84.9,75.3,29.90,SSW,202,4.3,6.7,73,0.00,,,0.00,WUHU21623XXSP,2013-08-27 00:31:00,
2013-08-26 19:36:00,84.6,74.9,29.89,South,180,3.1,4.9,73,0.00,,,0.00,WUHU21623XXSP,2013-08-27 00:36:00,
2013-08-26 19:41:00,84.4,75.2,29.89,SSW,202,6.0,6.0,74,0.00,,,0.00,WUHU21623XXSP,2013-08-27 00:41:00,
2013-08-26 19:46:00,84.0,75.2,29.90,SW,225,4.9,7.2,75,0.00,,,0.00,WUHU21623XXSP,2013-08-27 00:46:00,
2013-08-26 19:51:00,83.8,75.0,29.89,SW,225,5.6,7.6,75,0.00,,,0.00,WUHU21623XXSP,2013-08-27 00:51:00,
2013-08-26 19:56:00,83.7,75.3,29.89,SW,225,7.6,7.6,76,0.00,,,0.00,WUHU21623XXSP,2013-08-27 00:56:00,
2013-08-26 20:01:00,83.7,75.3,29.90,SW,225,3.1,7.8,76,0.00,,,0.00,WUHU21623XXSP,2013-08-27 01:01:00,
2013-08-26 20:06:00,83.5,75.1,29.91,SW,225,3.4,7.8,76,0.00,,,0.00,WUHU21623XXSP,2013-08-27 01:06:00,
2013-08-26 20:11:00,83.3,74.9,29.90,SW,225,4.5,6.7,76,0.00,,,0.00,WUHU21623XXSP,2013-08-27 01:11:00,
2013-08-26 20:16:00,83.1,74.8,29.90,SSW,202,5.1,7.8,76,0.00,,,0.00,WUHU21623XXSP,2013-08-27 01:16:00,
2013-08-26 20:21:00,83.1,74.8,29.91,WSW,247,7.2,9.8,76,0.00,,,0.00,WUHU21623XXSP,2013-08-27 01:21:00,
2013-08-26 20:26:00,83.1,74.8,29.90,SSW,202,3.6,9.8,76,0.00,,,0.00,WUHU21623XXSP,2013-08-27 01:26:00,
2013-08-26 20:31:00,82.9,74.6,29.90,SW,225,5.4,9.2,76,0.00,,,0.00,WUHU21623XXSP,2013-08-27 01:31:00,
2013-08-26 20:36:00,82.9,74.6,29.90,SW,225,7.6,11.2,76,0.00,,,0.00,WUHU21623XXSP,2013-08-27 01:36:00,
2013-08-26 20:41:00,82.8,74.4,29.90,WSW,247,7.4,11.2,76,0.00,,,0.00,WUHU21623XXSP,2013-08-27 01:41:00,
2013-08-26 20:46:00,82.6,74.2,29.90,SW,225,5.8,11.0,76,0.00,,,0.00,WUHU21623XXSP,2013-08-27 01:46:00,
2013-08-26 20:51:00,82.6,74.2,29.90,SSW,202,4.3,11.0,76,0.00,,,0.00,WUHU21623XXSP,2013-08-27 01:51:00,
2013-08-26 20:56:00,82.4,74.1,29.91,South,180,7.2,9.8,76,0.00,,,0.00,WUHU21623XXSP,2013-08-27 01:56:00,
2013-08-26 21:01:00,82.2,74.3,29.91,SSW,202,6.0,12.5,77,0.00,,,0.00,WUHU21623XXSP,2013-08-27 02:01:00,
2013-08-26 21:06:00,82.2,74.3,29.91,SSW,202,8.7,12.5,77,0.00,,,0.00,WUHU21623XXSP,2013-08-27 02:06:00,
2013-08-26 21:11:00,82.2,74.3,29.90,South,180,5.1,9.8,77,0.00,,,0.00,WUHU21623XXSP,2013-08-27 02:11:00,
2013-08-26 21:16:00,82.2,73.9,29.91,WSW,247,4.5,10.1,76,0.00,,,0.00,WUHU21623XXSP,2013-08-27 02:16:00,
2013-08-26 21:21:00,82.4,73.9,29.90,SSW,202,4.5,10.1,76,0.00,,,0.00,WUHU21623XXSP,2013-08-27 02:21:00,
2013-08-26 21:26:00,82.4,74.1,29.91,SSW,202,7.6,10.7,76,0.00,,,0.00,WUHU21623XXSP,2013-08-27 02:26:00,
2013-08-26 21:31:00,82.6,74.2,29.91,SSW,202,7.4,10.7,76,0.00,,,0.00,WUHU21623XXSP,2013-08-27 02:31:00,
2013-08-26 21:36:00,82.2,73.9,29.91,SSW,202,8.7,10.7,76,0.00,,,0.00,WUHU21623XXSP,2013-08-27 02:36:00,
2013-08-26 21:41:00,82.2,73.9,29.91,SW,225,8.7,10.7,76,0.00,,,0.00,WUHU21623XXSP,2013-08-27 02:41:00,
2013-08-26 21:46:00,82.2,73.9,29.91,SSW,202,9.2,14.1,76,0.00,,,0.00,WUHU21623XXSP,2013-08-27 02:46:00,
2013-08-26 21:51:00,82.2,73.9,29.91,SSW,202,11.4,14.1,76,0.00,,,0.00,WUHU21623XXSP,2013-08-27 02:51:00,
2013-08-26 21:56:00,82.2,73.9,29.91,SW,225,6.5,13.0,76,0.00,,,0.00,WUHU21623XXSP,2013-08-27 02:56:00,
2013-08-26 22:01:00,82.2,73.9,29.92,SW,225,8.5,12.8,76,0.00,,,0.00,WUHU21623XXSP,2013-08-27 03:01:00,
2013-08-26 22:06:00,82.2,73.9,29.91,SW,225,13.2,13.2,76,0.00,,,0.00,WUHU21623XXSP,2013-08-27 03:06:00,
2013-08-26 22:11:00,82.0,73.7,29.91,SW,225,8.5,13.2,76,0.00,,,0.00,WUHU21623XXSP,2013-08-27 03:11:00,
2013-08-26 22:16:00,81.7,73.4,29.91,SW,225,7.6,16.1,76,0.00,,,0.00,WUHU21623XXSP,2013-08-27 03:16:00,
2013-08-26 22:21:00,81.7,73.4,29.91,SSW,202,9.2,16.1,76,0.00,,,0.00,WUHU21623XXSP,2013-08-27 03:21:00,
2013-08-26 22:26:00,81.5,73.2,29.91,SW,225,9.6,13.6,76,0.00,,,0.00,WUHU21623XXSP,2013-08-27 03:26:00,
2013-08-26 22:31:00,81.3,73.0,29.91,SSW,202,11.0,15.0,76,0.00,,,0.00,WUHU21623XXSP,2013-08-27 03:31:00,
2013-08-26 22:36:00,81.5,73.2,29.91,South,180,5.6,15.0,76,0.00,,,0.00,WUHU21623XXSP,2013-08-27 03:36:00,
2013-08-26 22:41:00,81.3,73.0,29.90,SSW,202,6.3,15.2,76,0.00,,,0.00,WUHU21623XXSP,2013-08-27 03:41:00,
2013-08-26 22:46:00,81.0,73.1,29.91,SW,225,11.9,15.2,77,0.00,,,0.00,WUHU21623XXSP,2013-08-27 03:46:00,
2013-08-26 22:51:00,81.0,73.1,29.91,SSW,202,11.2,14.5,77,0.00,,,0.00,WUHU21623XXSP,2013-08-27 03:51:00,
2013-08-26 22:56:00,81.0,73.1,29.90,WSW,247,7.8,15.7,77,0.00,,,0.00,WUHU21623XXSP,2013-08-27 03:56:00,
2013-08-26 23:01:00,80.8,72.9,29.90,SSW,202,10.7,15.7,77,0.00,,,0.00,WUHU21623XXSP,2013-08-27 04:01:00,
2013-08-26 23:06:00,80.8,72.9,29.90,SSW,202,10.1,12.5,77,0.00,,,0.00,WUHU21623XXSP,2013-08-27 04:06:00,
2013-08-26 23:11:00,81.0,73.1,29.91,SSW,202,8.9,17.2,77,0.00,,,0.00,WUHU21623XXSP,2013-08-27 04:11:00,
2013-08-26 23:16:00,81.0,73.1,29.90,SW,225,8.3,17.2,77,0.00,,,0.00,WUHU21623XXSP,2013-08-27 04:16:00,
2013-08-26 23:21:00,81.0,73.1,29.90,South,180,4.5,15.7,77,0.00,,,0.00,WUHU21623XXSP,2013-08-27 04:21:00,
2013-08-26 23:26:00,80.8,72.9,29.90,SSW,202,12.8,15.7,77,0.00,,,0.00,WUHU21623XXSP,2013-08-27 04:26:00,
2013-08-26 23:31:00,80.8,72.9,29.89,SSW,202,10.3,14.8,77,0.00,,,0.00,WUHU21623XXSP,2013-08-27 04:31:00,
2013-08-26 23:36:00,80.8,72.9,29.89,SSW,202,11.4,13.6,77,0.00,,,0.00,WUHU21623XXSP,2013-08-27 04:36:00,
2013-08-26 23:41:00,80.6,72.8,29.89,South,180,10.5,13.6,77,0.00,,,0.00,WUHU21623XXSP,2013-08-27 04:41:00,
2013-08-26 23:46:00,80.4,72.6,29.89,SSW,202,4.7,14.5,77,0.00,,,0.00,WUHU21623XXSP,2013-08-27 04:46:00,
2013-08-26 23:51:00,80.4,72.6,29.90,South,180,7.8,14.5,77,0.00,,,0.00,WUHU21623XXSP,2013-08-27 04:51:00,
2013-08-26 23:56:00,80.4,72.6,29.89,SSW,202,6.9,14.3,77,0.00,,,0.00,WUHU21623XXSP,2013-08-27 04:56:00,